sensor_id;sensor_type;location;lat;lon;timestamp;P1;durP1;ratioP1;P2;durP2;ratioP2
73680;SDS011;61979;53.536;8.082;2022-08-25T00:00:29;4.78;;;3.47;;
73680;SDS011;61979;53.536;8.082;2022-08-25T00:01:32;6.63;;;3.58;;
73680;SDS011;61979;53.536;8.082;2022-08-25T00:02:38;5.30;;;3.50;;
73680;SDS011;61979;53.536;8.082;2022-08-25T00:03:38;7.05;;;3.40;;
73680;SDS011;61979;53.536;8.082;2022-08-25T00:04:40;6.85;;;3.33;;
73680;SDS011;61979;53.536;8.082;2022-08-25T00:05:40;3.92;;;3.38;;
73680;SDS011;61979;53.536;8.082;2022-08-25T00:06:41;7.63;;;3.38;;
73680;SDS011;61979;53.536;8.082;2022-08-25T00:07:43;4.35;;;3.65;;
73680;SDS011;61979;53.536;8.082;2022-08-25T00:08:43;5.22;;;3.35;;
73680;SDS011;61979;53.536;8.082;2022-08-25T00:09:44;4.82;;;3.50;;
73680;SDS011;61979;53.536;8.082;2022-08-25T00:10:45;8.00;;;3.55;;
73680;SDS011;61979;53.536;8.082;2022-08-25T00:11:47;4.68;;;3.40;;
73680;SDS011;61979;53.536;8.082;2022-08-25T00:12:48;4.63;;;3.50;;
73680;SDS011;61979;53.536;8.082;2022-08-25T00:13:50;5.85;;;3.60;;
73680;SDS011;61979;53.536;8.082;2022-08-25T00:14:53;4.60;;;3.42;;
73680;SDS011;61979;53.536;8.082;2022-08-25T00:15:54;7.20;;;3.72;;
73680;SDS011;61979;53.536;8.082;2022-08-25T00:16:54;6.28;;;3.63;;
73680;SDS011;61979;53.536;8.082;2022-08-25T00:17:55;5.07;;;3.80;;
73680;SDS011;61979;53.536;8.082;2022-08-25T00:18:58;5.07;;;3.60;;
73680;SDS011;61979;53.536;8.082;2022-08-25T00:20:00;4.40;;;3.30;;
73680;SDS011;61979;53.536;8.082;2022-08-25T00:21:01;4.32;;;3.60;;
73680;SDS011;61979;53.536;8.082;2022-08-25T00:22:02;8.13;;;3.60;;
73680;SDS011;61979;53.536;8.082;2022-08-25T00:23:04;7.18;;;3.92;;
73680;SDS011;61979;53.536;8.082;2022-08-25T00:24:04;4.82;;;3.60;;
73680;SDS011;61979;53.536;8.082;2022-08-25T00:25:04;7.32;;;3.83;;
73680;SDS011;61979;53.536;8.082;2022-08-25T00:26:05;5.90;;;4.13;;
73680;SDS011;61979;53.536;8.082;2022-08-25T00:27:06;4.97;;;3.75;;
73680;SDS011;61979;53.536;8.082;2022-08-25T00:28:07;8.40;;;3.42;;
73680;SDS011;61979;53.536;8.082;2022-08-25T00:29:07;6.10;;;3.70;;
73680;SDS011;61979;53.536;8.082;2022-08-25T00:30:09;6.20;;;3.38;;
73680;SDS011;61979;53.536;8.082;2022-08-25T00:31:11;4.93;;;3.47;;
73680;SDS011;61979;53.536;8.082;2022-08-25T00:32:15;4.82;;;3.40;;
73680;SDS011;61979;53.536;8.082;2022-08-25T00:33:17;5.65;;;3.67;;
73680;SDS011;61979;53.536;8.082;2022-08-25T00:34:20;6.03;;;3.45;;
73680;SDS011;61979;53.536;8.082;2022-08-25T00:35:25;8.23;;;4.00;;
73680;SDS011;61979;53.536;8.082;2022-08-25T00:36:26;6.82;;;3.60;;
73680;SDS011;61979;53.536;8.082;2022-08-25T00:37:27;7.45;;;3.60;;
73680;SDS011;61979;53.536;8.082;2022-08-25T00:38:28;6.18;;;3.88;;
73680;SDS011;61979;53.536;8.082;2022-08-25T00:39:28;5.05;;;3.65;;
73680;SDS011;61979;53.536;8.082;2022-08-25T00:40:29;6.88;;;3.97;;
73680;SDS011;61979;53.536;8.082;2022-08-25T00:41:29;5.47;;;3.55;;
73680;SDS011;61979;53.536;8.082;2022-08-25T00:42:30;9.60;;;3.75;;
73680;SDS011;61979;53.536;8.082;2022-08-25T00:44:40;5.85;;;3.60;;
73680;SDS011;61979;53.536;8.082;2022-08-25T00:45:40;7.65;;;3.70;;
73680;SDS011;61979;53.536;8.082;2022-08-25T00:46:42;6.35;;;3.90;;
73680;SDS011;61979;53.536;8.082;2022-08-25T00:47:48;4.93;;;3.83;;
73680;SDS011;61979;53.536;8.082;2022-08-25T00:48:51;11.05;;;3.72;;
73680;SDS011;61979;53.536;8.082;2022-08-25T00:49:57;6.75;;;3.70;;
73680;SDS011;61979;53.536;8.082;2022-08-25T00:51:00;6.35;;;3.38;;
73680;SDS011;61979;53.536;8.082;2022-08-25T00:52:05;6.47;;;3.85;;
73680;SDS011;61979;53.536;8.082;2022-08-25T00:53:08;5.93;;;3.28;;
73680;SDS011;61979;53.536;8.082;2022-08-25T00:54:10;10.80;;;3.90;;
73680;SDS011;61979;53.536;8.082;2022-08-25T00:55:20;5.65;;;3.55;;
73680;SDS011;61979;53.536;8.082;2022-08-25T00:57:39;6.53;;;3.63;;
73680;SDS011;61979;53.536;8.082;2022-08-25T00:58:42;6.60;;;3.70;;
73680;SDS011;61979;53.536;8.082;2022-08-25T00:59:43;6.80;;;3.40;;
73680;SDS011;61979;53.536;8.082;2022-08-25T01:00:45;5.85;;;3.88;;
73680;SDS011;61979;53.536;8.082;2022-08-25T01:01:48;5.03;;;3.83;;
73680;SDS011;61979;53.536;8.082;2022-08-25T01:02:50;5.45;;;3.83;;
73680;SDS011;61979;53.536;8.082;2022-08-25T01:03:51;5.75;;;3.40;;
73680;SDS011;61979;53.536;8.082;2022-08-25T01:04:51;6.80;;;3.88;;
73680;SDS011;61979;53.536;8.082;2022-08-25T01:05:52;5.95;;;3.95;;
73680;SDS011;61979;53.536;8.082;2022-08-25T01:06:54;5.85;;;3.50;;
73680;SDS011;61979;53.536;8.082;2022-08-25T01:07:56;13.73;;;3.95;;
73680;SDS011;61979;53.536;8.082;2022-08-25T01:09:02;5.75;;;3.50;;
73680;SDS011;61979;53.536;8.082;2022-08-25T01:10:03;5.38;;;3.67;;
73680;SDS011;61979;53.536;8.082;2022-08-25T01:11:06;5.65;;;3.80;;
73680;SDS011;61979;53.536;8.082;2022-08-25T01:12:09;4.85;;;4.05;;
73680;SDS011;61979;53.536;8.082;2022-08-25T01:13:11;6.07;;;3.85;;
73680;SDS011;61979;53.536;8.082;2022-08-25T01:14:15;6.28;;;3.88;;
73680;SDS011;61979;53.536;8.082;2022-08-25T01:15:17;8.88;;;3.67;;
73680;SDS011;61979;53.536;8.082;2022-08-25T01:16:18;4.97;;;3.53;;
73680;SDS011;61979;53.536;8.082;2022-08-25T01:17:20;5.85;;;3.88;;
73680;SDS011;61979;53.536;8.082;2022-08-25T01:18:21;4.80;;;3.70;;
73680;SDS011;61979;53.536;8.082;2022-08-25T01:19:22;6.22;;;3.70;;
73680;SDS011;61979;53.536;8.082;2022-08-25T01:20:25;4.35;;;3.65;;
73680;SDS011;61979;53.536;8.082;2022-08-25T01:21:28;5.38;;;3.80;;
73680;SDS011;61979;53.536;8.082;2022-08-25T01:22:30;9.52;;;3.85;;
73680;SDS011;61979;53.536;8.082;2022-08-25T01:23:31;7.03;;;4.00;;
73680;SDS011;61979;53.536;8.082;2022-08-25T01:24:36;4.82;;;3.72;;
73680;SDS011;61979;53.536;8.082;2022-08-25T01:25:55;7.03;;;3.85;;
73680;SDS011;61979;53.536;8.082;2022-08-25T01:27:02;5.88;;;3.85;;
73680;SDS011;61979;53.536;8.082;2022-08-25T01:28:04;5.70;;;3.78;;
73680;SDS011;61979;53.536;8.082;2022-08-25T01:29:05;7.38;;;3.72;;
73680;SDS011;61979;53.536;8.082;2022-08-25T01:30:26;5.03;;;3.47;;
73680;SDS011;61979;53.536;8.082;2022-08-25T01:31:27;5.53;;;3.90;;
73680;SDS011;61979;53.536;8.082;2022-08-25T01:32:28;8.10;;;3.65;;
73680;SDS011;61979;53.536;8.082;2022-08-25T01:33:32;6.97;;;3.80;;
73680;SDS011;61979;53.536;8.082;2022-08-25T01:34:34;7.28;;;4.03;;
73680;SDS011;61979;53.536;8.082;2022-08-25T01:35:37;6.60;;;3.88;;
73680;SDS011;61979;53.536;8.082;2022-08-25T01:36:39;7.85;;;4.00;;
73680;SDS011;61979;53.536;8.082;2022-08-25T01:37:41;6.53;;;3.85;;
73680;SDS011;61979;53.536;8.082;2022-08-25T01:38:42;8.77;;;4.57;;
73680;SDS011;61979;53.536;8.082;2022-08-25T01:39:42;6.63;;;3.78;;
73680;SDS011;61979;53.536;8.082;2022-08-25T01:40:43;7.15;;;3.90;;
73680;SDS011;61979;53.536;8.082;2022-08-25T01:41:48;5.95;;;3.80;;
73680;SDS011;61979;53.536;8.082;2022-08-25T01:43:54;4.75;;;3.70;;
73680;SDS011;61979;53.536;8.082;2022-08-25T01:44:54;7.15;;;3.95;;
73680;SDS011;61979;53.536;8.082;2022-08-25T01:45:56;9.27;;;4.05;;
73680;SDS011;61979;53.536;8.082;2022-08-25T01:46:57;8.35;;;4.05;;
73680;SDS011;61979;53.536;8.082;2022-08-25T01:47:57;6.35;;;4.20;;
73680;SDS011;61979;53.536;8.082;2022-08-25T01:48:58;6.60;;;3.97;;
73680;SDS011;61979;53.536;8.082;2022-08-25T01:50:00;7.53;;;4.63;;
73680;SDS011;61979;53.536;8.082;2022-08-25T01:51:00;7.75;;;4.15;;
73680;SDS011;61979;53.536;8.082;2022-08-25T01:52:05;8.27;;;4.25;;
73680;SDS011;61979;53.536;8.082;2022-08-25T01:53:17;4.65;;;3.75;;
73680;SDS011;61979;53.536;8.082;2022-08-25T01:54:18;6.43;;;4.30;;
73680;SDS011;61979;53.536;8.082;2022-08-25T01:55:19;6.90;;;4.05;;
73680;SDS011;61979;53.536;8.082;2022-08-25T01:56:19;8.63;;;4.03;;
73680;SDS011;61979;53.536;8.082;2022-08-25T01:57:20;9.30;;;4.68;;
73680;SDS011;61979;53.536;8.082;2022-08-25T01:58:22;10.65;;;3.92;;
73680;SDS011;61979;53.536;8.082;2022-08-25T01:59:23;6.45;;;4.30;;
73680;SDS011;61979;53.536;8.082;2022-08-25T02:00:25;8.20;;;4.53;;
73680;SDS011;61979;53.536;8.082;2022-08-25T02:01:25;6.10;;;4.03;;
73680;SDS011;61979;53.536;8.082;2022-08-25T02:02:26;8.73;;;4.28;;
73680;SDS011;61979;53.536;8.082;2022-08-25T02:03:27;8.00;;;4.20;;
73680;SDS011;61979;53.536;8.082;2022-08-25T02:04:28;5.80;;;4.28;;
73680;SDS011;61979;53.536;8.082;2022-08-25T02:05:31;6.43;;;4.35;;
73680;SDS011;61979;53.536;8.082;2022-08-25T02:06:32;5.07;;;4.15;;
73680;SDS011;61979;53.536;8.082;2022-08-25T02:07:33;8.00;;;4.55;;
73680;SDS011;61979;53.536;8.082;2022-08-25T02:08:34;7.60;;;4.38;;
73680;SDS011;61979;53.536;8.082;2022-08-25T02:09:35;5.97;;;4.10;;
73680;SDS011;61979;53.536;8.082;2022-08-25T02:10:37;5.25;;;4.07;;
73680;SDS011;61979;53.536;8.082;2022-08-25T02:11:38;9.55;;;4.50;;
73680;SDS011;61979;53.536;8.082;2022-08-25T02:12:41;6.80;;;4.15;;
73680;SDS011;61979;53.536;8.082;2022-08-25T02:13:41;8.80;;;4.40;;
73680;SDS011;61979;53.536;8.082;2022-08-25T02:14:42;6.32;;;4.45;;
73680;SDS011;61979;53.536;8.082;2022-08-25T02:15:43;6.15;;;4.45;;
73680;SDS011;61979;53.536;8.082;2022-08-25T02:16:47;5.93;;;4.47;;
73680;SDS011;61979;53.536;8.082;2022-08-25T02:17:49;6.93;;;4.50;;
73680;SDS011;61979;53.536;8.082;2022-08-25T02:18:50;5.50;;;4.55;;
73680;SDS011;61979;53.536;8.082;2022-08-25T02:19:50;5.80;;;4.70;;
73680;SDS011;61979;53.536;8.082;2022-08-25T02:20:51;7.75;;;4.60;;
73680;SDS011;61979;53.536;8.082;2022-08-25T02:21:51;6.47;;;4.75;;
73680;SDS011;61979;53.536;8.082;2022-08-25T02:22:52;7.97;;;5.18;;
73680;SDS011;61979;53.536;8.082;2022-08-25T02:23:53;8.00;;;4.85;;
73680;SDS011;61979;53.536;8.082;2022-08-25T02:24:54;8.95;;;4.60;;
73680;SDS011;61979;53.536;8.082;2022-08-25T02:25:54;6.38;;;4.75;;
73680;SDS011;61979;53.536;8.082;2022-08-25T02:26:56;8.52;;;4.53;;
73680;SDS011;61979;53.536;8.082;2022-08-25T02:27:57;6.97;;;4.30;;
73680;SDS011;61979;53.536;8.082;2022-08-25T02:28:58;10.80;;;5.25;;
73680;SDS011;61979;53.536;8.082;2022-08-25T02:29:58;4.85;;;4.28;;
73680;SDS011;61979;53.536;8.082;2022-08-25T02:30:59;6.13;;;4.60;;
73680;SDS011;61979;53.536;8.082;2022-08-25T02:32:00;7.22;;;4.40;;
73680;SDS011;61979;53.536;8.082;2022-08-25T02:33:02;9.82;;;4.43;;
73680;SDS011;61979;53.536;8.082;2022-08-25T02:34:03;10.43;;;4.95;;
73680;SDS011;61979;53.536;8.082;2022-08-25T02:35:06;6.10;;;4.60;;
73680;SDS011;61979;53.536;8.082;2022-08-25T02:36:07;6.90;;;4.82;;
73680;SDS011;61979;53.536;8.082;2022-08-25T02:37:08;7.95;;;4.63;;
73680;SDS011;61979;53.536;8.082;2022-08-25T02:38:08;10.23;;;4.70;;
73680;SDS011;61979;53.536;8.082;2022-08-25T02:39:09;7.10;;;5.13;;
73680;SDS011;61979;53.536;8.082;2022-08-25T02:40:10;7.35;;;4.75;;
73680;SDS011;61979;53.536;8.082;2022-08-25T02:41:12;6.93;;;4.90;;
73680;SDS011;61979;53.536;8.082;2022-08-25T02:42:14;9.02;;;5.18;;
73680;SDS011;61979;53.536;8.082;2022-08-25T02:43:14;10.23;;;5.00;;
73680;SDS011;61979;53.536;8.082;2022-08-25T02:44:15;7.55;;;5.10;;
73680;SDS011;61979;53.536;8.082;2022-08-25T02:45:16;6.15;;;4.68;;
73680;SDS011;61979;53.536;8.082;2022-08-25T02:46:18;6.10;;;4.60;;
73680;SDS011;61979;53.536;8.082;2022-08-25T02:47:19;6.25;;;4.40;;
73680;SDS011;61979;53.536;8.082;2022-08-25T02:48:21;5.68;;;5.10;;
73680;SDS011;61979;53.536;8.082;2022-08-25T02:49:22;9.07;;;4.95;;
73680;SDS011;61979;53.536;8.082;2022-08-25T02:50:23;6.22;;;4.68;;
73680;SDS011;61979;53.536;8.082;2022-08-25T02:51:24;10.55;;;5.00;;
73680;SDS011;61979;53.536;8.082;2022-08-25T02:52:27;7.53;;;5.22;;
73680;SDS011;61979;53.536;8.082;2022-08-25T02:53:31;6.80;;;5.10;;
73680;SDS011;61979;53.536;8.082;2022-08-25T02:54:32;10.18;;;5.30;;
73680;SDS011;61979;53.536;8.082;2022-08-25T02:55:33;7.13;;;4.97;;
73680;SDS011;61979;53.536;8.082;2022-08-25T02:56:33;9.73;;;5.30;;
73680;SDS011;61979;53.536;8.082;2022-08-25T02:57:34;11.15;;;5.25;;
73680;SDS011;61979;53.536;8.082;2022-08-25T02:58:35;10.02;;;5.35;;
73680;SDS011;61979;53.536;8.082;2022-08-25T02:59:36;9.05;;;5.10;;
73680;SDS011;61979;53.536;8.082;2022-08-25T03:00:36;7.40;;;5.15;;
73680;SDS011;61979;53.536;8.082;2022-08-25T03:01:37;7.97;;;5.47;;
73680;SDS011;61979;53.536;8.082;2022-08-25T03:02:37;11.43;;;5.72;;
73680;SDS011;61979;53.536;8.082;2022-08-25T03:03:38;9.23;;;5.28;;
73680;SDS011;61979;53.536;8.082;2022-08-25T03:04:39;7.88;;;5.25;;
73680;SDS011;61979;53.536;8.082;2022-08-25T03:05:39;10.57;;;5.10;;
73680;SDS011;61979;53.536;8.082;2022-08-25T03:06:40;7.88;;;5.10;;
73680;SDS011;61979;53.536;8.082;2022-08-25T03:07:43;9.25;;;5.22;;
73680;SDS011;61979;53.536;8.082;2022-08-25T03:08:44;7.32;;;5.28;;
73680;SDS011;61979;53.536;8.082;2022-08-25T03:09:45;10.25;;;5.60;;
73680;SDS011;61979;53.536;8.082;2022-08-25T03:10:45;6.35;;;5.32;;
73680;SDS011;61979;53.536;8.082;2022-08-25T03:11:46;10.90;;;5.95;;
73680;SDS011;61979;53.536;8.082;2022-08-25T03:12:46;6.75;;;5.60;;
73680;SDS011;61979;53.536;8.082;2022-08-25T03:13:47;9.52;;;5.75;;
73680;SDS011;61979;53.536;8.082;2022-08-25T03:14:49;8.40;;;5.95;;
73680;SDS011;61979;53.536;8.082;2022-08-25T03:15:53;10.13;;;5.70;;
73680;SDS011;61979;53.536;8.082;2022-08-25T03:16:53;9.10;;;5.68;;
73680;SDS011;61979;53.536;8.082;2022-08-25T03:17:54;8.15;;;5.85;;
73680;SDS011;61979;53.536;8.082;2022-08-25T03:18:54;13.75;;;6.20;;
73680;SDS011;61979;53.536;8.082;2022-08-25T03:19:55;9.68;;;5.57;;
73680;SDS011;61979;53.536;8.082;2022-08-25T03:20:56;8.73;;;5.50;;
73680;SDS011;61979;53.536;8.082;2022-08-25T03:21:57;7.50;;;5.82;;
73680;SDS011;61979;53.536;8.082;2022-08-25T03:22:58;11.70;;;5.50;;
73680;SDS011;61979;53.536;8.082;2022-08-25T03:23:58;8.68;;;5.85;;
73680;SDS011;61979;53.536;8.082;2022-08-25T03:24:59;9.80;;;5.80;;
73680;SDS011;61979;53.536;8.082;2022-08-25T03:26:18;10.38;;;5.93;;
73680;SDS011;61979;53.536;8.082;2022-08-25T03:27:37;8.65;;;6.57;;
73680;SDS011;61979;53.536;8.082;2022-08-25T03:28:37;10.10;;;6.20;;
73680;SDS011;61979;53.536;8.082;2022-08-25T03:29:37;10.20;;;5.80;;
73680;SDS011;61979;53.536;8.082;2022-08-25T03:30:40;9.25;;;5.90;;
73680;SDS011;61979;53.536;8.082;2022-08-25T03:31:41;7.95;;;5.88;;
73680;SDS011;61979;53.536;8.082;2022-08-25T03:32:45;6.25;;;5.63;;
73680;SDS011;61979;53.536;8.082;2022-08-25T03:33:45;12.48;;;6.13;;
73680;SDS011;61979;53.536;8.082;2022-08-25T03:34:46;8.30;;;6.22;;
73680;SDS011;61979;53.536;8.082;2022-08-25T03:35:46;8.57;;;6.72;;
73680;SDS011;61979;53.536;8.082;2022-08-25T03:36:48;10.32;;;6.00;;
73680;SDS011;61979;53.536;8.082;2022-08-25T03:37:54;11.68;;;6.05;;
73680;SDS011;61979;53.536;8.082;2022-08-25T03:38:58;9.25;;;6.05;;
73680;SDS011;61979;53.536;8.082;2022-08-25T03:39:58;8.07;;;5.97;;
73680;SDS011;61979;53.536;8.082;2022-08-25T03:40:59;9.77;;;5.90;;
73680;SDS011;61979;53.536;8.082;2022-08-25T03:42:01;8.70;;;5.78;;
73680;SDS011;61979;53.536;8.082;2022-08-25T03:43:03;8.23;;;6.25;;
73680;SDS011;61979;53.536;8.082;2022-08-25T03:44:04;7.40;;;6.45;;
73680;SDS011;61979;53.536;8.082;2022-08-25T03:45:07;11.70;;;6.60;;
73680;SDS011;61979;53.536;8.082;2022-08-25T03:46:21;8.18;;;6.38;;
73680;SDS011;61979;53.536;8.082;2022-08-25T03:47:23;8.65;;;6.10;;
73680;SDS011;61979;53.536;8.082;2022-08-25T03:48:25;8.40;;;6.35;;
73680;SDS011;61979;53.536;8.082;2022-08-25T03:49:25;10.10;;;6.70;;
73680;SDS011;61979;53.536;8.082;2022-08-25T03:50:26;9.93;;;6.72;;
73680;SDS011;61979;53.536;8.082;2022-08-25T03:51:34;9.90;;;6.90;;
73680;SDS011;61979;53.536;8.082;2022-08-25T03:52:49;11.70;;;6.55;;
73680;SDS011;61979;53.536;8.082;2022-08-25T03:53:51;11.32;;;7.00;;
73680;SDS011;61979;53.536;8.082;2022-08-25T03:54:52;11.80;;;6.82;;
73680;SDS011;61979;53.536;8.082;2022-08-25T03:55:52;9.50;;;7.03;;
73680;SDS011;61979;53.536;8.082;2022-08-25T03:56:52;8.48;;;6.60;;
73680;SDS011;61979;53.536;8.082;2022-08-25T03:57:53;8.63;;;7.15;;
73680;SDS011;61979;53.536;8.082;2022-08-25T03:58:54;10.40;;;7.05;;
73680;SDS011;61979;53.536;8.082;2022-08-25T03:59:55;9.98;;;7.00;;
73680;SDS011;61979;53.536;8.082;2022-08-25T04:00:55;12.38;;;7.75;;
73680;SDS011;61979;53.536;8.082;2022-08-25T04:01:59;10.13;;;7.07;;
73680;SDS011;61979;53.536;8.082;2022-08-25T04:03:00;12.73;;;7.88;;
73680;SDS011;61979;53.536;8.082;2022-08-25T04:04:01;12.18;;;7.32;;
73680;SDS011;61979;53.536;8.082;2022-08-25T04:05:02;12.10;;;7.63;;
73680;SDS011;61979;53.536;8.082;2022-08-25T04:06:03;8.90;;;6.68;;
73680;SDS011;61979;53.536;8.082;2022-08-25T04:07:05;9.43;;;7.07;;
73680;SDS011;61979;53.536;8.082;2022-08-25T04:08:05;9.00;;;7.00;;
73680;SDS011;61979;53.536;8.082;2022-08-25T04:09:06;9.60;;;7.63;;
73680;SDS011;61979;53.536;8.082;2022-08-25T04:10:08;11.93;;;7.22;;
73680;SDS011;61979;53.536;8.082;2022-08-25T04:11:11;16.70;;;7.40;;
73680;SDS011;61979;53.536;8.082;2022-08-25T04:12:13;10.57;;;7.15;;
73680;SDS011;61979;53.536;8.082;2022-08-25T04:13:13;12.38;;;7.50;;
73680;SDS011;61979;53.536;8.082;2022-08-25T04:14:13;10.18;;;7.25;;
73680;SDS011;61979;53.536;8.082;2022-08-25T04:15:14;9.65;;;7.40;;
73680;SDS011;61979;53.536;8.082;2022-08-25T04:16:16;10.32;;;7.38;;
73680;SDS011;61979;53.536;8.082;2022-08-25T04:17:21;12.90;;;7.82;;
73680;SDS011;61979;53.536;8.082;2022-08-25T04:18:22;13.43;;;7.15;;
73680;SDS011;61979;53.536;8.082;2022-08-25T04:19:22;9.20;;;7.53;;
73680;SDS011;61979;53.536;8.082;2022-08-25T04:20:22;15.07;;;8.30;;
73680;SDS011;61979;53.536;8.082;2022-08-25T04:21:23;9.15;;;7.60;;
73680;SDS011;61979;53.536;8.082;2022-08-25T04:22:25;10.02;;;8.02;;
73680;SDS011;61979;53.536;8.082;2022-08-25T04:23:25;14.13;;;8.50;;
73680;SDS011;61979;53.536;8.082;2022-08-25T04:24:25;11.57;;;7.65;;
73680;SDS011;61979;53.536;8.082;2022-08-25T04:25:26;12.30;;;8.23;;
73680;SDS011;61979;53.536;8.082;2022-08-25T04:26:32;12.88;;;7.50;;
73680;SDS011;61979;53.536;8.082;2022-08-25T04:27:34;11.48;;;7.63;;
73680;SDS011;61979;53.536;8.082;2022-08-25T04:28:36;11.68;;;8.13;;
73680;SDS011;61979;53.536;8.082;2022-08-25T04:29:37;12.25;;;7.85;;
73680;SDS011;61979;53.536;8.082;2022-08-25T04:30:40;11.77;;;7.22;;
73680;SDS011;61979;53.536;8.082;2022-08-25T04:31:43;9.18;;;8.02;;
73680;SDS011;61979;53.536;8.082;2022-08-25T04:32:54;10.27;;;8.05;;
73680;SDS011;61979;53.536;8.082;2022-08-25T04:34:00;10.60;;;7.97;;
73680;SDS011;61979;53.536;8.082;2022-08-25T04:35:01;11.63;;;7.82;;
73680;SDS011;61979;53.536;8.082;2022-08-25T04:36:04;11.82;;;8.07;;
73680;SDS011;61979;53.536;8.082;2022-08-25T04:37:05;9.13;;;7.57;;
73680;SDS011;61979;53.536;8.082;2022-08-25T04:38:06;12.45;;;8.55;;
73680;SDS011;61979;53.536;8.082;2022-08-25T04:39:07;11.15;;;8.27;;
73680;SDS011;61979;53.536;8.082;2022-08-25T04:40:07;10.23;;;8.63;;
73680;SDS011;61979;53.536;8.082;2022-08-25T04:41:10;12.25;;;8.10;;
73680;SDS011;61979;53.536;8.082;2022-08-25T04:42:12;10.32;;;8.32;;
73680;SDS011;61979;53.536;8.082;2022-08-25T04:43:12;12.13;;;8.98;;
73680;SDS011;61979;53.536;8.082;2022-08-25T04:44:12;12.40;;;8.25;;
73680;SDS011;61979;53.536;8.082;2022-08-25T04:45:13;11.68;;;8.57;;
73680;SDS011;61979;53.536;8.082;2022-08-25T04:46:15;10.48;;;8.52;;
73680;SDS011;61979;53.536;8.082;2022-08-25T04:47:20;11.48;;;8.32;;
73680;SDS011;61979;53.536;8.082;2022-08-25T04:48:21;13.05;;;8.93;;
73680;SDS011;61979;53.536;8.082;2022-08-25T04:49:22;16.08;;;9.13;;
73680;SDS011;61979;53.536;8.082;2022-08-25T04:50:23;11.75;;;8.63;;
73680;SDS011;61979;53.536;8.082;2022-08-25T04:51:25;14.60;;;8.60;;
73680;SDS011;61979;53.536;8.082;2022-08-25T04:52:31;12.27;;;8.45;;
73680;SDS011;61979;53.536;8.082;2022-08-25T04:53:32;13.45;;;9.15;;
73680;SDS011;61979;53.536;8.082;2022-08-25T04:54:33;11.30;;;8.15;;
73680;SDS011;61979;53.536;8.082;2022-08-25T04:55:38;12.25;;;8.70;;
73680;SDS011;61979;53.536;8.082;2022-08-25T04:56:43;12.75;;;8.80;;
73680;SDS011;61979;53.536;8.082;2022-08-25T04:57:43;12.52;;;8.88;;
73680;SDS011;61979;53.536;8.082;2022-08-25T04:58:44;11.23;;;9.02;;
73680;SDS011;61979;53.536;8.082;2022-08-25T04:59:47;11.23;;;8.65;;
73680;SDS011;61979;53.536;8.082;2022-08-25T05:00:48;14.60;;;8.90;;
73680;SDS011;61979;53.536;8.082;2022-08-25T05:01:48;12.40;;;8.63;;
73680;SDS011;61979;53.536;8.082;2022-08-25T05:02:50;14.82;;;9.35;;
73680;SDS011;61979;53.536;8.082;2022-08-25T05:03:55;11.27;;;9.13;;
73680;SDS011;61979;53.536;8.082;2022-08-25T05:04:59;14.23;;;9.15;;
73680;SDS011;61979;53.536;8.082;2022-08-25T05:06:01;10.35;;;8.57;;
73680;SDS011;61979;53.536;8.082;2022-08-25T05:07:03;12.05;;;9.00;;
73680;SDS011;61979;53.536;8.082;2022-08-25T05:08:04;13.48;;;9.02;;
73680;SDS011;61979;53.536;8.082;2022-08-25T05:09:05;16.67;;;9.18;;
73680;SDS011;61979;53.536;8.082;2022-08-25T05:10:06;13.35;;;9.40;;
73680;SDS011;61979;53.536;8.082;2022-08-25T05:11:08;12.43;;;9.43;;
73680;SDS011;61979;53.536;8.082;2022-08-25T05:12:11;12.40;;;8.98;;
73680;SDS011;61979;53.536;8.082;2022-08-25T05:13:12;12.98;;;8.45;;
73680;SDS011;61979;53.536;8.082;2022-08-25T05:14:12;16.95;;;9.05;;
73680;SDS011;61979;53.536;8.082;2022-08-25T05:15:17;13.00;;;9.13;;
73680;SDS011;61979;53.536;8.082;2022-08-25T05:16:56;12.50;;;9.15;;
73680;SDS011;61979;53.536;8.082;2022-08-25T05:17:57;14.65;;;10.00;;
73680;SDS011;61979;53.536;8.082;2022-08-25T05:18:57;22.23;;;17.67;;
73680;SDS011;61979;53.536;8.082;2022-08-25T05:19:58;17.00;;;13.50;;
73680;SDS011;61979;53.536;8.082;2022-08-25T05:21:02;16.80;;;13.70;;
73680;SDS011;61979;53.536;8.082;2022-08-25T05:22:04;12.63;;;9.73;;
73680;SDS011;61979;53.536;8.082;2022-08-25T05:23:05;14.07;;;9.18;;
73680;SDS011;61979;53.536;8.082;2022-08-25T05:24:06;14.73;;;9.63;;
73680;SDS011;61979;53.536;8.082;2022-08-25T05:25:06;12.82;;;9.90;;
73680;SDS011;61979;53.536;8.082;2022-08-25T05:26:08;13.27;;;10.18;;
73680;SDS011;61979;53.536;8.082;2022-08-25T05:27:11;12.88;;;9.75;;
73680;SDS011;61979;53.536;8.082;2022-08-25T05:28:11;13.98;;;9.52;;
73680;SDS011;61979;53.536;8.082;2022-08-25T05:29:12;13.32;;;9.98;;
73680;SDS011;61979;53.536;8.082;2022-08-25T05:30:13;12.85;;;9.30;;
73680;SDS011;61979;53.536;8.082;2022-08-25T05:31:14;15.85;;;10.65;;
73680;SDS011;61979;53.536;8.082;2022-08-25T05:32:14;12.85;;;9.63;;
73680;SDS011;61979;53.536;8.082;2022-08-25T05:33:17;18.70;;;10.77;;
73680;SDS011;61979;53.536;8.082;2022-08-25T05:34:18;18.17;;;10.52;;
73680;SDS011;61979;53.536;8.082;2022-08-25T05:35:19;14.02;;;9.95;;
73680;SDS011;61979;53.536;8.082;2022-08-25T05:36:19;16.55;;;10.55;;
73680;SDS011;61979;53.536;8.082;2022-08-25T05:37:22;13.38;;;9.75;;
73680;SDS011;61979;53.536;8.082;2022-08-25T05:38:22;13.30;;;9.82;;
73680;SDS011;61979;53.536;8.082;2022-08-25T05:39:22;15.40;;;10.07;;
73680;SDS011;61979;53.536;8.082;2022-08-25T05:40:23;12.73;;;9.85;;
73680;SDS011;61979;53.536;8.082;2022-08-25T05:41:25;14.43;;;9.90;;
73680;SDS011;61979;53.536;8.082;2022-08-25T05:42:27;13.25;;;9.77;;
73680;SDS011;61979;53.536;8.082;2022-08-25T05:43:27;12.57;;;9.82;;
73680;SDS011;61979;53.536;8.082;2022-08-25T05:44:28;10.77;;;9.55;;
73680;SDS011;61979;53.536;8.082;2022-08-25T05:45:30;12.13;;;9.85;;
73680;SDS011;61979;53.536;8.082;2022-08-25T05:46:30;12.55;;;10.10;;
73680;SDS011;61979;53.536;8.082;2022-08-25T05:47:31;13.80;;;10.40;;
73680;SDS011;61979;53.536;8.082;2022-08-25T05:48:33;13.25;;;10.05;;
73680;SDS011;61979;53.536;8.082;2022-08-25T05:49:33;14.75;;;10.20;;
73680;SDS011;61979;53.536;8.082;2022-08-25T05:50:34;17.40;;;10.02;;
73680;SDS011;61979;53.536;8.082;2022-08-25T05:51:34;15.05;;;10.20;;
73680;SDS011;61979;53.536;8.082;2022-08-25T05:52:34;14.02;;;9.88;;
73680;SDS011;61979;53.536;8.082;2022-08-25T05:53:35;12.60;;;9.93;;
73680;SDS011;61979;53.536;8.082;2022-08-25T05:54:38;14.80;;;10.10;;
73680;SDS011;61979;53.536;8.082;2022-08-25T05:55:42;15.52;;;10.57;;
73680;SDS011;61979;53.536;8.082;2022-08-25T05:56:44;16.13;;;10.20;;
73680;SDS011;61979;53.536;8.082;2022-08-25T05:57:44;15.55;;;10.40;;
73680;SDS011;61979;53.536;8.082;2022-08-25T05:58:45;14.40;;;10.63;;
73680;SDS011;61979;53.536;8.082;2022-08-25T05:59:46;14.80;;;9.95;;
73680;SDS011;61979;53.536;8.082;2022-08-25T06:00:46;12.82;;;10.23;;
73680;SDS011;61979;53.536;8.082;2022-08-25T06:01:47;19.02;;;10.65;;
73680;SDS011;61979;53.536;8.082;2022-08-25T06:03:06;17.70;;;10.32;;
73680;SDS011;61979;53.536;8.082;2022-08-25T06:04:06;14.85;;;10.52;;
73680;SDS011;61979;53.536;8.082;2022-08-25T06:05:08;13.95;;;10.82;;
73680;SDS011;61979;53.536;8.082;2022-08-25T06:06:16;14.18;;;10.18;;
73680;SDS011;61979;53.536;8.082;2022-08-25T06:07:17;12.95;;;10.38;;
73680;SDS011;61979;53.536;8.082;2022-08-25T06:08:17;17.98;;;10.80;;
73680;SDS011;61979;53.536;8.082;2022-08-25T06:09:18;14.27;;;10.07;;
73680;SDS011;61979;53.536;8.082;2022-08-25T06:10:18;13.73;;;10.07;;
73680;SDS011;61979;53.536;8.082;2022-08-25T06:11:19;15.43;;;10.80;;
73680;SDS011;61979;53.536;8.082;2022-08-25T06:12:19;16.63;;;10.15;;
73680;SDS011;61979;53.536;8.082;2022-08-25T06:13:20;11.45;;;9.98;;
73680;SDS011;61979;53.536;8.082;2022-08-25T06:14:21;15.02;;;9.70;;